Time;durP1;ratioP1;P1;durP2;ratioP2;P2;SDS_P1;SDS_P2;PMS_P1;PMS_P2;Temp;Humidity;BMP_temperature;BMP_pressure;BME280_temperature;BME280_humidity;BME280_pressure;Samples;Min_cycle;Max_cycle;Signal;HPM_P1;HPM_P2
2021/04/10 00:00:38;;;;;;;18.33;5.75;;;;;;;-143.98;100.00;68091.63;5064793;28;20358;-81
2021/04/10 00:03:06;;;;;;;14.23;5.13;;;;;;;-143.98;100.00;68091.63;5081303;28;20047;-81
2021/04/10 00:05:32;;;;;;;19.92;4.60;;;;;;;-143.98;100.00;68091.63;5063822;28;20132;-81
2021/04/10 00:07:59;;;;;;;16.92;5.03;;;;;;;-143.98;100.00;68091.63;5080507;28;20044;-81
2021/04/10 00:10:27;;;;;;;17.70;4.18;;;;;;;-143.98;100.00;68091.63;5081427;28;20151;-81
2021/04/10 00:12:56;;;;;;;17.73;4.57;;;;;;;-143.98;100.00;68091.63;5088591;28;20079;-81
2021/04/10 00:15:28;;;;;;;26.55;5.38;;;;;;;-143.98;100.00;68091.63;5097895;28;20112;-82
2021/04/10 00:17:58;;;;;;;17.50;4.00;;;;;;;-143.98;100.00;68091.63;5095045;28;20081;-82
2021/04/10 00:20:25;;;;;;;26.00;4.70;;;;;;;-143.98;100.00;68091.63;5070959;28;20067;-81
2021/04/10 00:23:06;;;;;;;19.15;5.05;;;;;;;-143.98;100.00;68091.63;5101497;28;20097;-81
2021/04/10 00:25:33;;;;;;;20.02;5.95;;;;;;;-143.98;100.00;68091.63;5114935;28;20055;-82
2021/04/10 00:27:59;;;;;;;25.88;5.63;;;;;;;-143.98;100.00;68091.63;5100738;28;20078;-82
2021/04/10 00:30:28;;;;;;;19.92;4.95;;;;;;;-143.98;100.00;68091.63;5123716;28;20071;-82
2021/04/10 00:32:55;;;;;;;20.45;4.68;;;;;;;-143.98;100.00;68091.63;5102776;28;20060;-82
2021/04/10 00:35:22;;;;;;;20.48;5.35;;;;;;;-143.98;100.00;68091.63;5100185;28;20116;-82
2021/04/10 00:37:48;;;;;;;15.15;5.00;;;;;;;-143.98;100.00;68091.63;5084343;28;20059;-82
2021/04/10 00:40:14;;;;;;;18.98;4.20;;;;;;;-143.98;100.00;68091.63;5101757;28;20203;-82
2021/04/10 00:42:40;;;;;;;13.70;4.55;;;;;;;-143.98;100.00;68091.63;5117111;28;20062;-82
2021/04/10 00:45:08;;;;;;;13.02;3.90;;;;;;;-143.98;100.00;68091.63;5100418;28;20056;-82
2021/04/10 00:47:35;;;;;;;20.02;4.22;;;;;;;-143.98;100.00;68091.63;5101060;28;20055;-82
2021/04/10 00:50:05;;;;;;;16.38;3.97;;;;;;;-143.98;100.00;68091.63;5119705;28;20056;-82
2021/04/10 00:52:36;;;;;;;15.43;4.28;;;;;;;-143.98;100.00;68091.63;5084339;28;20178;-82
2021/04/10 00:55:07;;;;;;;24.00;5.07;;;;;;;-143.98;100.00;68091.63;5100665;28;20055;-82
2021/04/10 00:57:33;;;;;;;19.65;4.93;;;;;;;-143.98;100.00;68091.63;5102744;28;20048;-82
2021/04/10 01:00:00;;;;;;;23.65;5.15;;;;;;;-143.98;100.00;68091.63;5083584;28;20411;-82
2021/04/10 01:02:28;;;;;;;23.67;4.95;;;;;;;-143.98;100.00;68091.63;5099604;28;20120;-81
2021/04/10 01:04:55;;;;;;;17.95;5.40;;;;;;;-143.98;100.00;68091.63;5102557;28;20130;-82
2021/04/10 01:07:21;;;;;;;11.02;5.05;;;;;;;-143.98;100.00;68091.63;5102773;28;20411;-82
2021/04/10 01:09:51;;;;;;;17.38;5.28;;;;;;;-143.98;100.00;68091.63;5102900;28;20543;-82
2021/04/10 01:12:28;;;;;;;21.70;5.55;;;;;;;-143.98;100.00;68091.63;5084646;28;20063;-82
2021/04/10 01:15:19;;;;;;;19.10;5.40;;;;;;;-143.98;100.00;68091.63;5085593;28;20056;-82
2021/04/10 01:18:08;;;;;;;28.33;4.88;;;;;;;-143.98;100.00;68091.63;5118983;28;20141;-82
2021/04/10 01:20:50;;;;;;;25.35;5.22;;;;;;;-143.98;100.00;68091.63;5100489;28;20060;-82
2021/04/10 01:23:42;;;;;;;18.83;5.10;;;;;;;-143.98;100.00;68091.63;5116083;28;20135;-82
2021/04/10 01:26:32;;;;;;;17.30;5.10;;;;;;;-143.98;100.00;68091.63;5117573;28;20066;-81
2021/04/10 01:29:11;;;;;;;19.33;5.22;;;;;;;-143.98;100.00;68091.63;5082433;28;20055;-82
2021/04/10 01:31:48;;;;;;;16.60;5.00;;;;;;;-143.98;100.00;68091.63;5082434;28;20254;-82
2021/04/10 01:34:30;;;;;;;29.35;5.32;;;;;;;-143.98;100.00;68091.63;5100353;28;20491;-82
2021/04/10 01:37:06;;;;;;;20.02;4.60;;;;;;;-143.98;100.00;68091.63;5083463;28;20070;-82
2021/04/10 01:39:33;;;;;;;24.73;4.90;;;;;;;-143.98;100.00;68091.63;5084290;28;20063;-82
2021/04/10 01:42:00;;;;;;;21.13;4.40;;;;;;;-143.98;100.00;68091.63;5083985;28;20086;-82
2021/04/10 01:44:27;;;;;;;21.67;4.72;;;;;;;-143.98;100.00;68091.63;5082916;28;20070;-80
2021/04/10 01:46:53;;;;;;;17.02;4.25;;;;;;;-143.98;100.00;68091.63;5084520;28;20067;-80
2021/04/10 01:49:19;;;;;;;24.23;4.72;;;;;;;-143.98;100.00;68091.63;5100973;28;20423;-80
2021/04/10 01:51:46;;;;;;;19.48;4.70;;;;;;;-143.98;100.00;68091.63;5104500;28;20047;-81
2021/04/10 01:54:13;;;;;;;22.77;4.35;;;;;;;-143.98;100.00;68091.63;5086340;28;20465;-81
2021/04/10 01:56:43;;;;;;;18.35;4.40;;;;;;;-143.98;100.00;68091.63;5084971;28;20343;-81
2021/04/10 01:59:13;;;;;;;26.50;4.95;;;;;;;-143.98;100.00;68091.63;5101601;28;20063;-81
2021/04/10 02:01:40;;;;;;;17.58;4.07;;;;;;;-143.98;100.00;68091.63;5102124;28;20055;-80
2021/04/10 02:04:09;;;;;;;23.38;4.80;;;;;;;-143.98;100.00;68091.63;5100559;28;20064;-81
2021/04/10 02:06:35;;;;;;;15.43;3.78;;;;;;;-143.98;100.00;68091.63;5099683;28;20063;-81
2021/04/10 02:09:03;;;;;;;13.73;3.92;;;;;;;-143.98;100.00;68091.63;5100975;28;20115;-81
2021/04/10 02:11:32;;;;;;;21.77;3.65;;;;;;;-143.98;100.00;68091.63;5082665;28;20067;-81
2021/04/10 02:14:03;;;;;;;10.85;3.30;;;;;;;-143.98;100.00;68091.63;5083822;28;20116;-81
2021/04/10 02:16:32;;;;;;;18.85;4.30;;;;;;;-143.98;100.00;68091.63;5083298;28;20387;-81
2021/04/10 02:19:01;;;;;;;14.18;3.75;;;;;;;-143.98;100.00;68091.63;5099700;28;20104;-81
2021/04/10 02:21:27;;;;;;;19.35;3.35;;;;;;;-143.98;100.00;68091.63;5083912;28;20052;-81
2021/04/10 02:23:54;;;;;;;31.85;4.50;;;;;;;-143.98;100.00;68091.63;5089276;28;20427;-80
2021/04/10 02:26:21;;;;;;;11.20;3.17;;;;;;;-143.98;100.00;68091.63;5080665;28;20071;-81
2021/04/10 02:28:47;;;;;;;7.38;3.17;;;;;;;-143.98;100.00;68091.63;5079937;28;20383;-81
2021/04/10 02:31:28;;;;;;;20.58;3.55;;;;;;;-143.98;100.00;68091.63;5081041;28;20137;-82
2021/04/10 02:34:04;;;;;;;14.50;2.75;;;;;;;-143.98;100.00;68091.63;5081493;28;20131;-82
2021/04/10 02:36:30;;;;;;;;;;;;;;;-143.98;100.00;68091.63;5064581;28;20152;-81
2021/04/10 02:38:57;;;;;;;13.10;2.85;;;;;;;-143.98;100.00;68091.63;5080854;28;19949;-81
2021/04/10 02:41:27;;;;;;;14.98;2.67;;;;;;;-143.98;100.00;68091.63;5097555;28;20052;-82
2021/04/10 02:44:01;;;;;;;12.95;2.90;;;;;;;-143.98;100.00;68091.63;5080145;28;20063;-82
2021/04/10 02:46:30;;;;;;;13.73;3.08;;;;;;;-143.98;100.00;68091.63;5062677;28;20048;-82
2021/04/10 02:49:11;;;;;;;17.40;3.00;;;;;;;-143.98;100.00;68091.63;5079047;28;20067;-82
2021/04/10 02:51:48;;;;;;;15.30;3.33;;;;;;;-143.98;100.00;68091.63;5079738;28;20056;-81
2021/04/10 02:54:17;;;;;;;23.08;3.33;;;;;;;-143.98;100.00;68091.63;5080269;28;20428;-81
2021/04/10 02:56:51;;;;;;;19.88;2.72;;;;;;;-143.98;100.00;68091.63;5062659;28;20506;-81
2021/04/10 02:59:19;;;;;;;14.00;2.88;;;;;;;-143.98;100.00;68091.63;5063256;28;20063;-81
2021/04/10 03:01:46;;;;;;;15.32;2.92;;;;;;;-143.98;100.00;68091.63;5078527;28;20244;-81
2021/04/10 03:04:12;;;;;;;15.10;4.03;;;;;;;-143.98;100.00;68091.63;5062686;28;20358;-81
2021/04/10 03:06:40;;;;;;;15.95;2.90;;;;;;;-143.98;100.00;68091.63;5062156;28;20048;-81
2021/04/10 03:09:07;;;;;;;11.93;2.53;;;;;;;-143.98;100.00;68091.63;5064411;28;20047;-81
2021/04/10 03:11:33;;;;;;;13.38;2.85;;;;;;;-143.98;100.00;68091.63;5065630;28;20086;-81
2021/04/10 03:14:04;;;;;;;11.23;2.92;;;;;;;-143.98;100.00;68091.63;5081662;28;20072;-82
2021/04/10 03:16:33;;;;;;;16.42;2.53;;;;;;;-143.98;100.00;68091.63;5065659;28;20051;-81
2021/04/10 03:19:03;;;;;;;18.83;2.45;;;;;;;-143.98;100.00;68091.63;5091460;28;20040;-81
2021/04/10 03:21:30;;;;;;;14.02;3.05;;;;;;;-143.98;100.00;68091.63;5080434;28;20048;-81
2021/04/10 03:23:56;;;;;;;19.70;3.60;;;;;;;-143.98;100.00;68091.63;5116633;28;20289;-81
2021/04/10 03:26:25;;;;;;;10.25;2.47;;;;;;;-143.98;100.00;68091.63;5114766;28;20109;-81
2021/04/10 03:28:55;;;;;;;21.67;2.30;;;;;;;-143.98;100.00;68091.63;5114985;28;20055;-82
2021/04/10 03:31:22;;;;;;;11.15;2.53;;;;;;;-143.98;100.00;68091.63;5110104;28;20085;-81
2021/04/10 03:33:48;;;;;;;10.70;2.60;;;;;;;-143.98;100.00;68091.63;5104823;28;20063;-82
2021/04/10 03:36:14;;;;;;;16.30;2.50;;;;;;;-143.98;100.00;68091.63;5104388;28;20055;-81
2021/04/10 03:38:42;;;;;;;10.45;2.28;;;;;;;-143.98;100.00;68091.63;5089211;28;20059;-82
2021/04/10 03:41:08;;;;;;;17.58;2.50;;;;;;;-143.98;100.00;68091.63;5103590;28;20523;-82
2021/04/10 03:43:35;;;;;;;15.70;2.67;;;;;;;-143.98;100.00;68091.63;5115506;28;20115;-82
2021/04/10 03:46:02;;;;;;;10.27;2.50;;;;;;;-143.98;100.00;68091.63;5117926;28;20107;-82
2021/04/10 03:48:29;;;;;;;11.95;2.47;;;;;;;-143.98;100.00;68091.63;5110521;28;20040;-81
2021/04/10 03:51:04;;;;;;;15.77;3.92;;;;;;;-143.98;100.00;68091.63;5104493;28;20128;-81
2021/04/10 03:53:30;;;;;;;11.98;2.30;;;;;;;-143.98;100.00;68091.63;5086424;28;20087;-81
2021/04/10 03:55:59;;;;;;;15.48;2.05;;;;;;;-143.98;100.00;68091.63;5113243;28;20097;-81
2021/04/10 03:58:25;;;;;;;16.73;2.50;;;;;;;-143.98;100.00;68091.63;5116916;28;20062;-81
2021/04/10 04:00:55;;;;;;;11.23;2.17;;;;;;;-143.98;100.00;68091.63;5103471;28;20314;-81
2021/04/10 04:03:21;;;;;;;18.25;2.30;;;;;;;-143.98;100.00;68091.63;5086031;28;20320;-84
2021/04/10 04:05:47;;;;;;;12.38;2.17;;;;;;;-143.98;100.00;68091.63;5103167;28;20055;-82
2021/04/10 04:08:16;;;;;;;14.02;2.33;;;;;;;-143.98;100.00;68091.63;5104241;28;20079;-82
2021/04/10 04:10:42;;;;;;;16.33;1.98;;;;;;;-143.98;100.00;68091.63;5101471;28;20066;-82
2021/04/10 04:13:09;;;;;;;17.40;2.40;;;;;;;-143.98;100.00;68091.63;5100535;28;20047;-81
2021/04/10 04:15:39;;;;;;;10.55;1.83;;;;;;;-143.98;100.00;68091.63;5099159;28;20353;-82
2021/04/10 04:18:05;;;;;;;7.85;1.65;;;;;;;-143.98;100.00;68091.63;5085199;28;20052;-81
2021/04/10 04:20:31;;;;;;;10.23;2.45;;;;;;;-143.98;100.00;68091.63;5101427;28;20426;-82
2021/04/10 04:22:58;;;;;;;8.68;1.88;;;;;;;-143.98;100.00;68091.63;5096569;28;20067;-81
2021/04/10 04:25:25;;;;;;;12.98;2.85;;;;;;;-143.98;100.00;68091.63;5080597;28;20044;-81
2021/04/10 04:27:51;;;;;;;9.60;1.80;;;;;;;-143.98;100.00;68091.63;5076299;28;20104;-81
2021/04/10 04:30:19;;;;;;;11.18;2.03;;;;;;;-143.98;100.00;68091.63;5096705;28;20054;-81
2021/04/10 04:32:45;;;;;;;9.10;2.20;;;;;;;-143.98;100.00;68091.63;5077859;28;20036;-81
2021/04/10 04:35:12;;;;;;;8.43;2.25;;;;;;;-143.98;100.00;68091.63;5085121;28;20055;-81
2021/04/10 04:37:40;;;;;;;7.78;1.77;;;;;;;-143.98;100.00;68091.63;5081661;28;20407;-82
2021/04/10 04:40:12;;;;;;;10.25;2.25;;;;;;;-143.98;100.00;68091.63;5065397;28;20059;-81
2021/04/10 04:42:39;;;;;;;15.93;2.38;;;;;;;-143.98;100.00;68091.63;5081632;28;20048;-82
2021/04/10 04:45:06;;;;;;;8.63;2.35;;;;;;;-143.98;100.00;68091.63;5081261;28;20063;-81
2021/04/10 04:47:35;;;;;;;9.60;2.20;;;;;;;-143.98;100.00;68091.63;5082929;28;20289;-81
2021/04/10 04:50:03;;;;;;;9.95;1.88;;;;;;;-143.98;100.00;68091.63;5082476;28;20063;-81
2021/04/10 04:52:30;;;;;;;10.70;1.77;;;;;;;-143.98;100.00;68091.63;5064126;28;20078;-82
2021/04/10 04:54:59;;;;;;;12.68;2.10;;;;;;;-143.98;100.00;68091.63;5063224;28;20068;-81
2021/04/10 04:57:28;;;;;;;9.95;1.95;;;;;;;-143.98;100.00;68091.63;5080382;28;20423;-81
2021/04/10 04:59:54;;;;;;;9.25;1.80;;;;;;;-143.98;100.00;68091.63;5078506;28;20063;-81
2021/04/10 05:02:21;;;;;;;10.00;2.03;;;;;;;-143.98;100.00;68091.63;5095229;28;20187;-81
2021/04/10 05:04:47;;;;;;;13.23;1.67;;;;;;;-143.98;100.00;68091.63;5063893;28;20062;-81
2021/04/10 05:07:13;;;;;;;8.90;1.88;;;;;;;-143.98;100.00;68091.63;5079438;28;20343;-81
2021/04/10 05:09:39;;;;;;;13.80;1.95;;;;;;;-143.98;100.00;68091.63;5080681;28;20051;-81
2021/04/10 05:12:07;;;;;;;13.05;2.00;;;;;;;-143.98;100.00;68091.63;5063520;28;20060;-81
2021/04/10 05:14:33;;;;;;;9.18;2.05;;;;;;;-143.98;100.00;68091.63;5063308;28;20151;-81
2021/04/10 05:16:59;;;;;;;8.57;2.45;;;;;;;-143.98;100.00;68091.63;5097049;28;20044;-81
2021/04/10 05:19:26;;;;;;;9.30;2.47;;;;;;;-143.98;100.00;68091.63;5079977;28;20067;-81
2021/04/10 05:21:52;;;;;;;11.98;2.15;;;;;;;-143.98;100.00;68091.63;5079212;28;20044;-81
2021/04/10 05:24:19;;;;;;;4.80;1.70;;;;;;;-143.98;100.00;68091.63;5097167;28;20279;-81
2021/04/10 05:26:45;;;;;;;7.10;2.03;;;;;;;-143.98;100.00;68091.63;5098214;28;20078;-81
2021/04/10 05:29:11;;;;;;;11.60;2.15;;;;;;;-143.98;100.00;68091.63;5116768;28;20047;-81
2021/04/10 05:31:38;;;;;;;10.98;2.33;;;;;;;-143.98;100.00;68091.63;5098915;28;20157;-81
2021/04/10 05:34:04;;;;;;;15.60;2.30;;;;;;;-143.98;100.00;68091.63;5098795;28;20102;-80
2021/04/10 05:36:30;;;;;;;5.00;1.63;;;;;;;-143.98;100.00;68091.63;5086208;28;20055;-80
2021/04/10 05:38:59;;;;;;;8.32;1.60;;;;;;;-143.98;100.00;68091.63;5084877;28;20572;-80
2021/04/10 05:41:27;;;;;;;11.68;1.90;;;;;;;-143.98;100.00;68091.63;5081915;28;20055;-81
2021/04/10 05:43:53;;;;;;;8.82;1.77;;;;;;;-143.98;100.00;68091.63;5082470;28;20052;-81
2021/04/10 05:46:20;;;;;;;11.82;2.33;;;;;;;-143.98;100.00;68091.63;5082273;28;20050;-81
2021/04/10 05:48:46;;;;;;;5.78;1.52;;;;;;;-143.98;100.00;68091.63;5082187;28;20067;-80
2021/04/10 05:51:12;;;;;;;14.05;1.80;;;;;;;-143.98;100.00;68091.63;5100387;28;20055;-81
2021/04/10 05:53:42;;;;;;;11.73;2.00;;;;;;;-143.98;100.00;68091.63;5099627;28;20396;-80
2021/04/10 05:56:13;;;;;;;11.73;1.75;;;;;;;-143.98;100.00;68091.63;5101201;28;20421;-81
2021/04/10 05:58:39;;;;;;;6.70;1.92;;;;;;;-143.98;100.00;68091.63;5081917;28;20130;-81
2021/04/10 06:01:08;;;;;;;10.15;2.10;;;;;;;-143.98;100.00;68091.63;5117915;28;20052;-81
2021/04/10 06:03:34;;;;;;;8.63;2.17;;;;;;;-143.98;100.00;68091.63;5098125;28;20054;-81
2021/04/10 06:06:00;;;;;;;6.13;2.25;;;;;;;-143.98;100.00;68091.63;5116212;28;20055;-81
2021/04/10 06:08:26;;;;;;;10.15;2.15;;;;;;;-143.98;100.00;68091.63;5099287;28;20056;-81
2021/04/10 06:10:53;;;;;;;9.40;2.38;;;;;;;-143.98;100.00;68091.63;5083001;28;20055;-81
2021/04/10 06:13:25;;;;;;;11.75;3.10;;;;;;;-143.98;100.00;68091.63;5084444;28;20059;-81
2021/04/10 06:15:54;;;;;;;14.20;2.05;;;;;;;-143.98;100.00;68091.63;5119095;28;20052;-81
2021/04/10 06:18:24;;;;;;;11.10;1.85;;;;;;;-143.98;100.00;68091.63;5132216;28;20039;-81
2021/04/10 06:20:54;;;;;;;9.68;1.85;;;;;;;-143.98;100.00;68091.63;5108801;28;20104;-81
2021/04/10 06:23:20;;;;;;;10.23;1.85;;;;;;;-143.98;100.00;68091.63;5091387;28;20052;-81
2021/04/10 06:25:48;;;;;;;9.77;2.08;;;;;;;-143.98;100.00;68091.63;5077297;28;20082;-81
2021/04/10 06:28:17;;;;;;;6.82;2.30;;;;;;;-143.98;100.00;68091.63;5060237;28;20066;-81
2021/04/10 06:30:46;;;;;;;8.32;2.15;;;;;;;-143.98;100.00;68091.63;5079207;28;20052;-81
2021/04/10 06:33:15;;;;;;;9.90;2.10;;;;;;;-143.98;100.00;68091.63;5084922;28;20055;-82
2021/04/10 06:35:42;;;;;;;12.88;2.35;;;;;;;-143.98;100.00;68091.63;5081929;28;20074;-81
2021/04/10 06:38:11;;;;;;;12.73;2.13;;;;;;;-143.98;100.00;68091.63;5081903;28;20056;-82
2021/04/10 06:40:40;;;;;;;14.82;2.60;;;;;;;-143.98;100.00;68091.63;5064556;28;20056;-82
2021/04/10 06:43:16;;;;;;;14.48;1.75;;;;;;;-143.98;100.00;68091.63;5080136;28;20060;-81
2021/04/10 06:45:42;;;;;;;15.50;2.53;;;;;;;-143.98;100.00;68091.63;5064814;28;20052;-81
2021/04/10 06:48:13;;;;;;;14.00;1.90;;;;;;;-143.98;100.00;68091.63;5079234;28;20048;-82
2021/04/10 06:50:41;;;;;;;9.52;1.98;;;;;;;-143.98;100.00;68091.63;5060101;28;20518;-82
2021/04/10 06:53:15;;;;;;;11.20;2.33;;;;;;;-143.98;100.00;68091.63;5078294;28;20087;-82
2021/04/10 06:55:55;;;;;;;10.40;1.70;;;;;;;-143.98;100.00;68091.63;5076008;28;20076;-82
2021/04/10 06:58:41;;;;;;;8.23;1.65;;;;;;;-143.98;100.00;68091.63;5062921;28;20060;-81
2021/04/10 07:01:39;;;;;;;11.45;2.00;;;;;;;-143.98;100.00;68091.63;5082220;28;20146;-81
2021/04/10 07:04:08;;;;;;;19.63;2.08;;;;;;;-143.98;100.00;68091.63;5081247;28;20056;-81
2021/04/10 07:06:37;;;;;;;14.23;1.90;;;;;;;-143.98;100.00;68091.63;5065041;28;20198;-81
2021/04/10 07:09:04;;;;;;;17.40;2.45;;;;;;;-143.98;100.00;68091.63;5081694;28;20075;-81
2021/04/10 07:11:37;;;;;;;20.77;2.47;;;;;;;-143.98;100.00;68091.63;5083459;28;20067;-81
2021/04/10 07:14:03;;;;;;;16.27;2.42;;;;;;;-143.98;100.00;68091.63;5075811;28;20116;-83
2021/04/10 07:16:37;;;;;;;17.70;2.67;;;;;;;-143.98;100.00;68091.63;5093266;28;20119;-82
2021/04/10 07:19:11;;;;;;;23.40;2.38;;;;;;;-143.98;100.00;68091.63;5070439;28;20082;-82
2021/04/10 07:21:43;;;;;;;12.15;2.13;;;;;;;-143.98;100.00;68091.63;5066605;28;20297;-82
2021/04/10 07:24:10;;;;;;;13.45;1.70;;;;;;;-143.98;100.00;68091.63;5096033;28;20234;-82
2021/04/10 07:26:46;;;;;;;18.20;2.72;;;;;;;-143.98;100.00;68091.63;5098117;28;20113;-82
2021/04/10 07:29:32;;;;;;;12.13;2.30;;;;;;;-143.98;100.00;68091.63;5111640;28;20426;-82
2021/04/10 07:31:59;;;;;;;7.38;2.45;;;;;;;-143.98;100.00;68091.63;5102582;28;20051;-81
2021/04/10 07:34:31;;;;;;;13.98;3.13;;;;;;;-143.98;100.00;68091.63;5086479;28;20055;-82
2021/04/10 07:36:59;;;;;;;17.23;2.80;;;;;;;-143.98;100.00;68091.63;5102808;28;20149;-82
2021/04/10 07:39:26;;;;;;;16.05;3.50;;;;;;;-143.98;100.00;68091.63;5084627;28;20047;-81
2021/04/10 07:42:01;;;;;;;15.65;3.00;;;;;;;-143.98;100.00;68091.63;5107895;28;20056;-81
2021/04/10 07:44:56;;;;;;;23.27;3.40;;;;;;;-143.98;100.00;68091.63;5093657;28;20066;-82
2021/04/10 07:47:36;;;;;;;14.10;2.25;;;;;;;-143.98;100.00;68091.63;5103109;28;20123;-82
2021/04/10 07:50:21;;;;;;;17.13;2.20;;;;;;;-143.98;100.00;68091.63;5099301;28;20067;-82
2021/04/10 07:52:54;;;;;;;17.50;2.42;;;;;;;-143.98;100.00;68091.63;5098463;28;20950;-82
2021/04/10 07:55:44;;;;;;;15.52;2.83;;;;;;;-143.98;100.00;68091.63;5099511;28;20055;-82
2021/04/10 07:58:33;;;;;;;11.38;2.58;;;;;;;-143.98;100.00;68091.63;5097037;28;20066;-81
2021/04/10 08:01:05;;;;;;;17.73;2.60;;;;;;;-143.98;100.00;68091.63;5096438;28;20059;-82
2021/04/10 08:03:36;;;;;;;8.48;2.38;;;;;;;-143.98;100.00;68091.63;5080697;28;20313;-82
2021/04/10 08:06:19;;;;;;;12.15;2.83;;;;;;;-143.98;100.00;68091.63;5114375;28;20183;-81
2021/04/10 08:08:45;;;;;;;18.30;3.00;;;;;;;-143.98;100.00;68091.63;5079569;28;20083;-81
2021/04/10 08:11:15;;;;;;;17.35;2.42;;;;;;;-143.98;100.00;68091.63;5113786;28;20051;-82
2021/04/10 08:13:58;;;;;;;16.42;2.70;;;;;;;-143.98;100.00;68091.63;5081925;28;20087;-82
2021/04/10 08:16:28;;;;;;;17.83;2.50;;;;;;;-143.98;100.00;68091.63;5095469;28;20429;-82
2021/04/10 08:18:56;;;;;;;12.95;2.25;;;;;;;-143.98;100.00;68091.63;5078224;28;20403;-82
2021/04/10 08:21:32;;;;;;;12.88;2.10;;;;;;;-143.98;100.00;68091.63;5075996;28;20052;-81
2021/04/10 08:24:03;;;;;;;13.75;2.33;;;;;;;-143.98;100.00;68091.63;5111701;28;20060;-81
2021/04/10 08:26:32;;;;;;;15.45;2.63;;;;;;;-143.98;100.00;68091.63;5080395;28;20152;-80
2021/04/10 08:29:05;;;;;;;11.70;1.85;;;;;;;-143.98;100.00;68091.63;5097415;28;20063;-80
2021/04/10 08:31:34;;;;;;;11.18;2.03;;;;;;;-143.98;100.00;68091.63;5096309;28;20051;-80
2021/04/10 08:34:03;;;;;;;13.15;2.45;;;;;;;-143.98;100.00;68091.63;5094057;28;20063;-80
2021/04/10 08:36:31;;;;;;;11.38;1.85;;;;;;;-143.98;100.00;68091.63;5095474;28;20056;-80
2021/04/10 08:38:58;;;;;;;14.75;2.40;;;;;;;-143.98;100.00;68091.63;5078394;28;20047;-80
2021/04/10 08:41:30;;;;;;;11.93;1.80;;;;;;;-143.98;100.00;68091.63;5077487;28;20070;-80
2021/04/10 08:44:02;;;;;;;10.32;1.90;;;;;;;-143.98;100.00;68091.63;5078144;28;20047;-80
2021/04/10 08:46:29;;;;;;;10.45;1.90;;;;;;;-143.98;100.00;68091.63;5076459;28;20135;-80
2021/04/10 08:48:57;;;;;;;17.00;2.40;;;;;;;-143.98;100.00;68091.63;5094308;28;20120;-80
2021/04/10 08:51:26;;;;;;;12.13;2.10;;;;;;;-143.98;100.00;68091.63;5112923;28;20168;-81
2021/04/10 08:53:59;;;;;;;7.63;1.92;;;;;;;-143.98;100.00;68091.63;5076674;28;20419;-81
2021/04/10 08:56:27;;;;;;;12.63;2.70;;;;;;;-143.98;100.00;68091.63;5078610;28;20056;-81
2021/04/10 08:59:14;;;;;;;7.00;2.10;;;;;;;-143.98;100.00;68091.63;5114331;28;20175;-82
2021/04/10 09:01:42;;;;;;;9.52;2.50;;;;;;;-143.98;100.00;68091.63;5094505;28;20196;-80
2021/04/10 09:04:10;;;;;;;10.25;1.80;;;;;;;-143.98;100.00;68091.63;5079488;28;20059;-82
2021/04/10 09:06:46;;;;;;;14.60;1.75;;;;;;;-143.98;100.00;68091.63;5081906;28;20047;-81
2021/04/10 09:09:24;;;;;;;11.20;2.08;;;;;;;-143.98;100.00;68091.63;5088937;28;20069;-81
2021/04/10 09:12:17;;;;;;;7.80;1.65;;;;;;;-143.98;100.00;68091.63;5125780;28;20050;-81
2021/04/10 09:14:50;;;;;;;9.57;1.73;;;;;;;-143.98;100.00;68091.63;5077452;28;20101;-81
2021/04/10 09:17:16;;;;;;;13.65;2.33;;;;;;;-143.98;100.00;68091.63;5092656;28;20064;-81
2021/04/10 09:19:46;;;;;;;12.15;2.10;;;;;;;-143.98;100.00;68091.63;5097053;28;20058;-81
2021/04/10 09:22:17;;;;;;;6.53;1.88;;;;;;;-143.98;100.00;68091.63;5107957;28;20067;-82
2021/04/10 09:24:47;;;;;;;8.80;2.00;;;;;;;-143.98;100.00;68091.63;5105838;28;20063;-81
2021/04/10 09:27:20;;;;;;;11.57;1.83;;;;;;;-143.98;100.00;68091.63;5085013;28;20121;-81
2021/04/10 09:29:56;;;;;;;9.20;1.45;;;;;;;-143.98;100.00;68091.63;5095708;28;20308;-82
2021/04/10 09:32:44;;;;;;;8.60;1.38;;;;;;;-143.98;100.00;68091.63;5075297;28;20048;-82
2021/04/10 09:35:18;;;;;;;7.88;1.65;;;;;;;-143.98;100.00;68091.63;5093631;28;20055;-82
2021/04/10 09:37:50;;;;;;;14.85;2.35;;;;;;;-143.98;100.00;68091.63;5075547;28;20108;-82
2021/04/10 09:40:22;;;;;;;9.73;1.75;;;;;;;-143.98;100.00;68091.63;5074094;28;20388;-84
2021/04/10 09:42:51;;;;;;;9.25;2.28;;;;;;;-143.98;100.00;68091.63;5075691;28;20245;-82
2021/04/10 09:45:31;;;;;;;10.48;2.22;;;;;;;-143.98;100.00;68091.63;5093251;28;20079;-82
2021/04/10 09:50:43;;;;;;;7.95;1.80;;;;;;;-143.98;100.00;68091.63;5110757;28;20604;-82
2021/04/10 09:53:22;;;;;;;10.90;2.03;;;;;;;-143.98;100.00;68091.63;5092062;28;20078;-81
2021/04/10 09:55:56;;;;;;;8.10;1.90;;;;;;;-143.98;100.00;68091.63;5076707;28;20130;-82
2021/04/10 09:58:25;;;;;;;9.60;2.25;;;;;;;-143.98;100.00;68091.63;5097718;28;20174;-82
2021/04/10 10:01:01;;;;;;;9.77;2.20;;;;;;;-143.98;100.00;68091.63;5095900;28;20047;-82
2021/04/10 10:03:31;;;;;;;8.35;1.83;;;;;;;-143.98;100.00;68091.63;5076560;28;20081;-82
2021/04/10 10:06:26;;;;;;;14.05;2.38;;;;;;;-143.98;100.00;68091.63;5094018;28;20069;-82
2021/04/10 10:08:57;;;;;;;12.55;1.75;;;;;;;-143.98;100.00;68091.63;5091692;28;20047;-80
2021/04/10 10:11:23;;;;;;;9.73;2.47;;;;;;;-143.98;100.00;68091.63;5073894;28;20108;-80
2021/04/10 10:13:50;;;;;;;14.15;1.90;;;;;;;-143.98;100.00;68091.63;5074696;28;20066;-81
2021/04/10 10:16:24;;;;;;;7.30;1.90;;;;;;;-143.98;100.00;68091.63;5092429;28;20047;-82
2021/04/10 10:19:03;;;;;;;10.40;2.50;;;;;;;-143.98;100.00;68091.63;5092794;28;20083;-81
2021/04/10 10:21:32;;;;;;;6.18;1.80;;;;;;;-143.98;100.00;68091.63;5076602;28;20060;-81
2021/04/10 10:24:00;;;;;;;8.63;1.80;;;;;;;-143.98;100.00;68091.63;5077915;28;20098;-81
2021/04/10 10:26:45;;;;;;;14.75;2.80;;;;;;;-143.98;100.00;68091.63;5078120;28;20247;-81
2021/04/10 10:29:16;;;;;;;7.97;2.22;;;;;;;-143.98;100.00;68091.63;5091762;28;20174;-81
2021/04/10 10:31:44;;;;;;;10.25;2.25;;;;;;;-143.98;100.00;68091.63;5092378;28;20124;-81
2021/04/10 10:34:13;;;;;;;11.35;3.50;;;;;;;-143.98;100.00;68091.63;5093540;28;20222;-82
2021/04/10 10:36:53;;;;;;;20.45;3.13;;;;;;;-143.98;100.00;68091.63;5079214;28;20405;-82
2021/04/10 10:39:35;;;;;;;13.38;2.47;;;;;;;-143.98;100.00;68091.63;5096046;28;20059;-81
2021/04/10 10:42:08;;;;;;;10.35;2.15;;;;;;;-143.98;100.00;68091.63;5096469;28;20051;-81
2021/04/10 10:44:36;;;;;;;10.93;1.98;;;;;;;-143.98;100.00;68091.63;5104469;28;20229;-81
2021/04/10 10:47:07;;;;;;;10.32;1.80;;;;;;;-143.98;100.00;68091.63;5109701;28;20071;-81
2021/04/10 10:49:39;;;;;;;10.05;2.05;;;;;;;-143.98;100.00;68091.63;5087898;28;20423;-81
2021/04/10 10:52:21;;;;;;;9.02;1.85;;;;;;;-143.98;100.00;68091.63;5096357;28;20155;-81
2021/04/10 10:54:48;;;;;;;13.30;1.73;;;;;;;-143.98;100.00;68091.63;5095243;28;20130;-81
2021/04/10 10:57:19;;;;;;;6.65;1.80;;;;;;;-143.98;100.00;68091.63;5089078;28;20127;-81
2021/04/10 11:00:09;;;;;;;8.60;1.50;;;;;;;-143.98;100.00;68091.63;5108909;28;20194;-81
2021/04/10 11:02:47;;;;;;;9.65;2.05;;;;;;;-143.98;100.00;68091.63;5094317;28;20052;-82
2021/04/10 11:05:14;;;;;;;6.95;1.80;;;;;;;-143.98;100.00;68091.63;5112196;28;20060;-81
2021/04/10 11:07:45;;;;;;;7.57;1.30;;;;;;;-143.98;100.00;68091.63;5096472;28;20052;-81
2021/04/10 11:10:16;;;;;;;12.40;2.70;;;;;;;-143.98;100.00;68091.63;5097890;28;20108;-81
2021/04/10 11:12:43;;;;;;;8.90;2.15;;;;;;;-143.98;100.00;68091.63;5091437;28;20063;-81
2021/04/10 11:15:12;;;;;;;7.53;1.52;;;;;;;-143.98;100.00;68091.63;5092582;28;20046;-80
2021/04/10 11:17:39;;;;;;;8.80;1.92;;;;;;;-143.98;100.00;68091.63;5109219;28;20098;-81
2021/04/10 11:20:28;;;;;;;8.52;2.08;;;;;;;-143.98;100.00;68091.63;5121689;28;20115;-81
2021/04/10 11:23:05;;;;;;;7.28;2.03;;;;;;;-143.98;100.00;68091.63;5075984;28;20048;-81